createdAt,value
2023-04-24T00:01:20.867Z,95093.69
2023-04-24T00:03:49.794Z,95095.91
2023-04-24T00:06:18.720Z,95093.20
2023-04-24T00:08:47.279Z,95093.53
2023-04-24T00:11:15.985Z,95085.81
2023-04-24T00:13:44.663Z,95078.69
2023-04-24T00:16:13.363Z,95073.30
2023-04-24T00:18:42.576Z,95071.34
2023-04-24T00:21:11.385Z,95078.14
2023-04-24T00:23:40.253Z,95076.75
2023-04-24T00:26:09.137Z,95071.70
2023-04-24T00:28:37.876Z,95071.07
2023-04-24T00:31:06.588Z,95064.99
2023-04-24T00:33:35.258Z,95067.90
2023-04-24T00:36:05.010Z,95069.75
2023-04-24T00:38:33.643Z,95071.86
2023-04-24T00:41:02.352Z,95068.86
2023-04-24T00:43:31.039Z,95074.44
2023-04-24T00:46:01.958Z,95073.00
2023-04-24T00:48:30.737Z,95072.67
2023-04-24T00:50:59.878Z,95072.66
2023-04-24T00:53:28.561Z,95070.33
2023-04-24T00:55:57.891Z,95064.33
2023-04-24T00:58:30.140Z,95065.86
2023-04-24T01:00:59.168Z,95066.25
2023-04-24T01:03:31.832Z,95062.63
2023-04-24T01:06:00.806Z,95064.80
2023-04-24T01:08:31.076Z,95067.00
2023-04-24T01:11:00.389Z,95064.33
2023-04-24T01:13:30.802Z,95066.24
2023-04-24T01:16:02.263Z,95059.91
2023-04-24T01:18:34.711Z,95062.62
2023-04-24T01:21:05.859Z,95059.11
2023-04-24T01:23:34.587Z,95049.10
2023-04-24T01:26:03.565Z,95047.23
2023-04-24T01:28:33.758Z,95045.00
2023-04-24T01:31:05.400Z,95039.81
2023-04-24T01:33:34.205Z,95036.02
2023-04-24T01:36:03.398Z,95038.08
2023-04-24T01:38:32.111Z,95035.81
2023-04-24T01:41:01.478Z,95037.28
2023-04-24T01:43:30.743Z,95035.53
2023-04-24T01:45:59.447Z,95035.16
2023-04-24T01:48:28.933Z,95034.77
2023-04-24T01:50:58.885Z,95035.08
2023-04-24T01:53:27.493Z,95030.81
2023-04-24T01:55:56.433Z,95023.00
2023-04-24T01:58:25.833Z,95023.87
2023-04-24T02:00:54.559Z,95017.71
2023-04-24T02:03:23.535Z,95022.02
2023-04-24T02:05:52.445Z,95024.59
2023-04-24T02:08:21.079Z,95028.07
2023-04-24T02:10:49.939Z,95020.23
2023-04-24T02:13:20.526Z,95025.83
2023-04-24T02:15:49.248Z,95021.56
2023-04-24T02:18:17.976Z,95024.50
2023-04-24T02:20:46.719Z,95014.06
2023-04-24T02:23:15.794Z,95023.35
2023-04-24T02:25:44.409Z,95018.70
2023-04-24T02:28:13.013Z,95017.31
2023-04-24T02:30:41.710Z,95017.88
2023-04-24T02:33:10.350Z,95022.59
2023-04-24T02:35:39.101Z,95021.17
2023-04-24T02:38:08.000Z,95014.50
2023-04-24T02:40:36.604Z,95008.56
2023-04-24T02:43:05.291Z,95003.97
2023-04-24T02:45:35.751Z,94993.84
2023-04-24T02:48:07.430Z,94993.55
2023-04-24T02:50:36.291Z,94992.73
2023-04-24T02:53:04.930Z,94995.81
2023-04-24T02:55:33.526Z,94993.86
2023-04-24T02:58:02.211Z,94991.83
2023-04-24T03:00:31.311Z,94996.61
2023-04-24T03:03:00.098Z,94992.91
2023-04-24T03:05:28.758Z,94996.31
2023-04-24T03:07:57.569Z,95001.13
2023-04-24T03:10:29.151Z,94998.14
2023-04-24T03:12:57.760Z,95002.50
2023-04-24T03:15:28.968Z,95004.42
2023-04-24T03:17:57.700Z,95009.47
2023-04-24T03:20:26.867Z,95003.83
2023-04-24T03:22:55.438Z,95001.61
2023-04-24T03:25:24.133Z,95003.34
2023-04-24T03:27:52.740Z,95006.98
2023-04-24T03:30:21.535Z,95010.81
2023-04-24T03:32:50.362Z,95011.63
2023-04-24T03:35:18.950Z,95009.14
2023-04-24T03:37:49.134Z,95013.90
2023-04-24T03:40:17.845Z,95012.73
2023-04-24T03:42:46.457Z,95007.78
2023-04-24T03:45:15.699Z,95008.47
2023-04-24T03:47:44.522Z,95010.63
2023-04-24T03:50:13.338Z,95005.48
2023-04-24T03:52:41.973Z,95012.76
2023-04-24T03:55:12.543Z,95014.66
2023-04-24T03:57:42.601Z,95004.72
2023-04-24T04:00:12.408Z,95006.09
2023-04-24T04:02:41.158Z,95008.13
2023-04-24T04:05:10.055Z,95015.24
2023-04-24T04:07:38.800Z,95015.78
2023-04-24T04:10:08.728Z,95010.06
2023-04-24T04:12:37.455Z,95016.27
2023-04-24T04:15:07.856Z,95017.63
2023-04-24T04:17:36.684Z,95022.86
2023-04-24T04:20:07.522Z,95014.38
2023-04-24T04:22:36.124Z,95007.53
2023-04-24T04:25:05.573Z,95014.19
2023-04-24T04:27:34.774Z,95018.06
2023-04-24T04:30:07.531Z,95019.20
2023-04-24T04:32:36.976Z,95020.57
2023-04-24T04:35:06.475Z,95027.81
2023-04-24T04:37:35.916Z,95024.84
2023-04-24T04:40:08.516Z,95026.19
2023-04-24T04:42:37.174Z,95030.95
2023-04-24T04:45:06.141Z,95038.48
2023-04-24T04:47:35.154Z,95036.66
2023-04-24T04:50:04.936Z,95041.73
2023-04-24T04:52:33.856Z,95046.31
2023-04-24T04:55:02.519Z,95046.63
2023-04-24T04:57:31.257Z,95046.41
2023-04-24T04:59:59.820Z,95049.69
2023-04-24T05:02:28.668Z,95049.52
2023-04-24T05:05:01.181Z,95051.78
2023-04-24T05:07:30.689Z,95056.88
2023-04-24T05:10:03.906Z,95054.63
2023-04-24T05:12:32.482Z,95058.55
2023-04-24T05:15:06.384Z,95055.23
2023-04-24T05:17:38.526Z,95051.03
2023-04-24T05:20:08.241Z,95051.66
2023-04-24T05:22:38.578Z,95052.81
2023-04-24T05:25:08.843Z,95049.17
2023-04-24T05:27:39.063Z,95048.19
2023-04-24T05:30:08.756Z,95047.59
2023-04-24T05:32:39.031Z,95051.40
2023-04-24T05:35:12.087Z,95049.94
2023-04-24T05:37:40.899Z,95052.24
2023-04-24T05:40:16.939Z,95047.28
2023-04-24T05:42:52.076Z,95050.16
2023-04-24T05:45:33.817Z,95055.89
2023-04-24T05:48:06.627Z,95057.79
2023-04-24T05:50:36.995Z,95054.56
2023-04-24T05:53:08.453Z,95062.77
2023-04-24T05:55:41.263Z,95064.30
2023-04-24T05:58:13.120Z,95061.06
2023-04-24T06:00:47.559Z,95035.44
2023-04-24T06:03:16.853Z,95050.36
2023-04-24T06:05:46.164Z,95050.16
2023-04-24T06:08:14.829Z,95053.02
2023-04-24T06:10:43.521Z,95063.73
2023-04-24T06:13:15.068Z,95053.41
2023-04-24T06:15:44.689Z,95052.45
2023-04-24T06:18:15.650Z,95057.80
2023-04-24T06:20:44.930Z,95050.54
2023-04-24T06:23:13.595Z,95048.62
2023-04-24T06:28:31.373Z,95050.13
2023-04-24T06:31:06.686Z,95050.83
2023-04-24T06:33:41.477Z,95055.70
2023-04-24T06:36:14.795Z,95049.70
2023-04-24T06:38:43.631Z,95049.20
2023-04-24T06:41:14.519Z,95052.98
2023-04-24T06:43:43.386Z,95050.70
2023-04-24T06:46:16.000Z,95047.47
2023-04-24T06:48:45.650Z,95053.83
2023-04-24T06:51:22.536Z,95056.66
2023-04-24T06:53:52.856Z,95049.63
2023-04-24T06:56:27.098Z,95051.55
2023-04-24T06:58:57.200Z,95053.91
2023-04-24T07:01:35.418Z,95041.37
2023-04-24T07:04:10.014Z,95045.05
2023-04-24T07:06:41.610Z,95036.86
2023-04-24T07:09:13.462Z,95040.19
2023-04-24T07:11:46.417Z,95040.94
2023-04-24T07:14:20.779Z,95036.27
2023-04-24T07:16:51.666Z,95035.75
2023-04-24T07:19:23.222Z,95035.25
2023-04-24T07:21:56.625Z,95031.37
2023-04-24T07:24:26.884Z,95035.05
2023-04-24T07:27:02.452Z,95027.44
2023-04-24T07:29:39.299Z,95031.79
2023-04-24T07:32:06.613Z,95032.58
2023-04-24T07:34:39.886Z,95022.02
2023-04-24T07:37:13.248Z,95020.36
2023-04-24T07:39:46.420Z,95017.68
2023-04-24T07:42:27.809Z,95009.70
2023-04-24T07:44:54.122Z,95008.13
2023-04-24T07:47:22.830Z,95005.27
2023-04-24T07:49:57.295Z,95008.02
2023-04-24T07:52:29.467Z,95009.16
2023-04-24T07:55:01.578Z,95001.51
2023-04-24T07:57:33.529Z,94989.12
2023-04-24T08:00:06.324Z,95005.55
2023-04-24T08:02:39.341Z,95001.66
2023-04-24T08:05:24.852Z,95007.06
2023-04-24T08:07:55.026Z,95003.38
2023-04-24T08:10:25.503Z,94999.08
2023-04-24T08:13:02.759Z,94993.84
2023-04-24T08:15:40.237Z,94986.00
2023-04-24T08:19:40.538Z,94990.27
2023-04-24T08:21:10.860Z,94990.34
2023-04-24T08:23:49.154Z,94978.80
2023-04-24T08:26:32.475Z,94981.34
2023-04-24T08:29:03.057Z,94984.53
2023-04-24T08:31:33.668Z,94972.43
2023-04-24T08:34:12.147Z,94972.23
2023-04-24T08:40:02.772Z,94972.50
2023-04-24T08:42:45.917Z,94968.11
2023-04-24T08:45:18.981Z,94965.38
2023-04-24T08:47:49.664Z,94955.36
2023-04-24T08:50:26.138Z,94955.92
2023-04-24T08:53:04.572Z,94943.80
2023-04-24T08:55:48.668Z,94946.66
2023-04-24T08:58:21.171Z,94950.47
2023-04-24T09:01:08.257Z,94939.33
2023-04-24T09:03:33.973Z,94936.47
2023-04-24T09:06:11.076Z,94935.29
2023-04-24T09:08:48.656Z,94932.06
2023-04-24T09:11:28.206Z,94928.68
2023-04-24T09:14:02.575Z,94925.13
2023-04-24T09:16:37.524Z,94918.96
2023-04-24T09:19:14.957Z,94915.96
2023-04-24T09:25:23.440Z,94886.48
2023-04-24T09:46:01.611Z,94880.09
2023-04-24T09:48:45.290Z,94886.39
2023-04-24T09:51:22.913Z,94887.58
2023-04-24T09:53:54.955Z,94883.30
2023-04-24T09:56:30.703Z,94889.13
2023-04-24T09:59:11.386Z,94875.78
2023-04-24T10:02:03.154Z,94880.34
2023-04-24T10:04:53.294Z,94872.11
2023-04-24T10:07:12.879Z,94860.66
2023-04-24T10:09:52.659Z,94858.58
2023-04-24T10:12:24.384Z,94858.17
2023-04-24T10:15:02.875Z,94857.08
2023-04-24T10:33:28.093Z,94830.09
2023-04-24T10:35:59.547Z,94818.94
2023-04-24T10:38:35.766Z,94808.90
2023-04-24T10:41:21.047Z,94816.64
2023-04-24T10:43:52.390Z,94811.60
2023-04-24T10:46:31.058Z,94806.44
2023-04-24T10:49:03.827Z,94806.05
2023-04-24T10:51:55.636Z,94799.45
2023-04-24T10:54:54.438Z,94796.62
2023-04-24T10:57:45.245Z,94794.59
2023-04-24T11:00:47.251Z,94788.00
2023-04-24T11:03:39.244Z,94783.98
2023-04-24T11:06:10.268Z,94783.23
2023-04-24T11:08:54.507Z,94782.98
2023-04-24T11:11:27.365Z,94788.70
2023-04-24T11:14:17.753Z,94789.22
2023-04-24T11:16:55.060Z,94786.00
2023-04-24T11:19:34.224Z,94785.38
2023-04-24T11:22:09.841Z,94784.91
2023-04-24T11:24:46.555Z,94786.28
2023-04-24T11:27:23.389Z,94801.50
2023-04-24T11:30:08.348Z,94824.77
2023-04-24T11:32:40.123Z,94847.26
2023-04-24T11:35:33.343Z,94833.29
2023-04-24T11:40:38.819Z,94816.73
2023-04-24T11:43:13.673Z,94820.04
2023-04-24T11:45:45.557Z,94819.95
2023-04-24T11:48:44.137Z,94815.05
2023-04-24T11:51:05.641Z,94808.31
2023-04-24T11:53:41.494Z,94801.46
2023-04-24T11:56:12.277Z,94797.73
2023-04-24T12:02:14.574Z,94793.43
2023-04-24T12:04:45.094Z,94788.39
2023-04-24T12:07:15.943Z,94790.13
2023-04-24T12:09:50.216Z,94780.31
2023-04-24T12:12:27.032Z,94787.52
2023-04-24T12:14:58.739Z,94781.33
2023-04-24T12:17:34.107Z,94773.77
2023-04-24T12:20:06.479Z,94771.38
2023-04-24T12:22:57.447Z,94767.13
2023-04-24T12:25:31.621Z,94775.13
2023-04-24T12:28:10.890Z,94766.15
2023-04-24T12:30:52.521Z,94756.77
2023-04-24T12:33:25.701Z,94750.34
2023-04-24T12:35:56.554Z,94741.00
2023-04-24T12:41:13.148Z,94720.77
2023-04-24T12:46:51.760Z,94724.89
2023-04-24T12:49:51.734Z,94714.98
2023-04-24T12:52:31.409Z,94719.06
2023-04-24T12:55:13.953Z,94712.75
2023-04-24T12:57:48.875Z,94702.75
2023-04-24T13:00:24.112Z,94689.18
2023-04-24T13:02:52.938Z,94682.84
2023-04-24T13:05:24.131Z,94673.06
2023-04-24T13:08:12.747Z,94668.16
2023-04-24T13:10:42.317Z,94668.23
2023-04-24T13:13:15.385Z,94661.97
2023-04-24T13:16:03.086Z,94655.41
2023-04-24T13:18:33.077Z,94654.70
2023-04-24T13:21:03.085Z,94653.84
2023-04-24T13:23:38.277Z,94651.81
2023-04-24T13:26:08.672Z,94651.20
2023-04-24T13:28:37.271Z,94654.18
2023-04-24T13:31:08.163Z,94648.16
2023-04-24T13:33:36.829Z,94642.09
2023-04-24T13:36:09.292Z,94638.83
2023-04-24T13:38:37.832Z,94635.36
2023-04-24T13:41:07.907Z,94630.95
2023-04-24T13:43:36.493Z,94629.97
2023-04-24T13:46:05.379Z,94620.34
2023-04-24T13:48:34.039Z,94621.10
2023-04-24T13:51:04.718Z,94616.38
2023-04-24T13:53:42.911Z,94606.28
2023-04-24T13:56:13.273Z,94603.46
2023-04-24T13:58:42.037Z,94603.13
2023-04-24T14:01:14.900Z,94594.48
2023-04-24T14:03:46.642Z,94591.41
2023-04-24T14:06:15.554Z,94585.55
2023-04-24T14:08:44.293Z,94578.94
2023-04-24T14:11:17.066Z,94580.13
2023-04-24T14:13:47.002Z,94581.70
2023-04-24T14:16:17.661Z,94572.66
2023-04-24T14:18:46.513Z,94573.13
2023-04-24T14:21:18.305Z,94576.03
2023-04-24T14:23:49.582Z,94568.33
2023-04-24T14:26:18.369Z,94567.05
2023-04-24T14:28:51.094Z,94567.94
2023-04-24T14:31:19.919Z,94574.27
2023-04-24T14:33:48.742Z,94573.25
2023-04-24T14:36:20.856Z,94577.55
2023-04-24T14:38:49.403Z,94573.51
2023-04-24T14:41:21.056Z,94576.66
2023-04-24T14:43:50.089Z,94569.05
2023-04-24T14:46:18.815Z,94573.80
2023-04-24T14:48:52.054Z,94573.68
2023-04-24T14:51:20.751Z,94572.72
2023-04-24T14:53:49.428Z,94571.45
2023-04-24T14:56:18.081Z,94566.53
2023-04-24T14:58:46.848Z,94571.69
2023-04-24T15:01:17.737Z,94570.25
2023-04-24T15:03:47.378Z,94566.95
2023-04-24T15:06:16.521Z,94566.80
2023-04-24T15:08:50.220Z,94567.20
2023-04-24T15:11:18.610Z,94557.22
2023-04-24T15:13:47.804Z,94555.87
2023-04-24T15:16:17.002Z,94555.56
2023-04-24T15:18:46.040Z,94552.20
2023-04-24T15:21:14.685Z,94554.80
2023-04-24T15:23:43.398Z,94555.23
2023-04-24T15:26:11.974Z,94559.32
2023-04-24T15:28:40.762Z,94556.54
2023-04-24T15:31:09.814Z,94559.75
2023-04-24T15:33:38.494Z,94554.24
2023-04-24T15:36:09.570Z,94541.98
2023-04-24T15:38:38.736Z,94542.07
2023-04-24T15:41:10.643Z,94539.33
2023-04-24T15:43:41.101Z,94545.80
2023-04-24T15:46:14.585Z,94555.95
2023-04-24T15:48:45.409Z,94556.78
2023-04-24T15:51:14.204Z,94550.08
2023-04-24T15:53:42.965Z,94548.76
2023-04-24T15:56:11.677Z,94549.11
2023-04-24T15:58:40.754Z,94545.47
2023-04-24T16:01:09.598Z,94549.01
2023-04-24T16:03:38.994Z,94555.82
2023-04-24T16:06:08.175Z,94556.42
2023-04-24T16:08:37.321Z,94553.73
2023-04-24T16:11:06.371Z,94563.97
2023-04-24T16:13:35.399Z,94582.78
2023-04-24T16:16:09.039Z,94604.37
2023-04-24T16:18:38.046Z,94627.27
2023-04-24T16:21:08.590Z,94638.05
2023-04-24T16:23:55.124Z,94644.37
2023-04-24T16:26:24.295Z,94646.97
2023-04-24T16:28:53.349Z,94637.45
2023-04-24T16:31:22.465Z,94645.23
2023-04-24T16:33:51.571Z,94644.55
2023-04-24T16:36:22.359Z,94647.02
2023-04-24T16:38:51.461Z,94664.44
2023-04-24T16:41:20.762Z,94676.39
2023-04-24T16:44:02.026Z,94678.31
2023-04-24T16:46:31.500Z,94647.17
2023-04-24T16:49:00.701Z,94691.28
2023-04-24T16:51:29.787Z,94689.28
2023-04-24T16:53:58.903Z,94698.41
2023-04-24T16:56:29.614Z,94702.10
2023-04-24T16:59:00.138Z,94692.03
2023-04-24T17:01:29.780Z,94693.58
2023-04-24T17:03:59.111Z,94678.83
2023-04-24T17:06:35.412Z,94684.16
2023-04-24T17:09:05.121Z,94688.27
2023-04-24T17:11:35.633Z,94695.20
2023-04-24T17:14:07.545Z,94697.39
2023-04-24T17:16:38.724Z,94705.17
2023-04-24T17:19:08.485Z,94702.49
2023-04-24T17:21:37.645Z,94694.07
2023-04-24T17:24:07.139Z,94684.59
2023-04-24T17:26:36.183Z,94677.55
2023-04-24T17:29:06.812Z,94666.18
2023-04-24T17:31:40.223Z,94676.91
2023-04-24T17:34:13.401Z,94681.91
2023-04-24T17:36:44.151Z,94686.09
2023-04-24T17:39:17.262Z,94691.45
2023-04-24T17:41:48.787Z,94699.84
2023-04-24T17:44:17.627Z,94705.27
2023-04-24T17:46:48.103Z,94715.52
2023-04-24T17:49:18.923Z,94725.45
2023-04-24T17:51:50.684Z,94729.81
2023-04-24T17:54:19.573Z,94730.56
2023-04-24T17:56:48.858Z,94731.50
2023-04-24T17:59:17.665Z,94741.50
2023-04-24T18:01:51.285Z,94744.27
2023-04-24T18:04:21.818Z,94742.45
2023-04-24T18:06:52.482Z,94754.88
2023-04-24T18:12:53.247Z,94765.74
2023-04-24T18:15:22.644Z,94779.05
2023-04-24T18:17:51.689Z,94782.58
2023-04-24T18:20:20.858Z,94788.58
2023-04-24T18:22:51.215Z,94790.31
2023-04-24T18:25:21.567Z,94794.75
2023-04-24T18:27:50.261Z,94787.53
2023-04-24T18:30:18.985Z,94777.09
2023-04-24T18:33:06.589Z,94747.28
2023-04-24T18:35:39.150Z,94736.58
2023-04-24T18:38:18.714Z,94714.65
2023-04-24T18:40:47.519Z,94701.86
2023-04-24T18:43:16.194Z,94700.03
2023-04-24T18:45:46.709Z,94714.75
2023-04-24T18:48:15.504Z,94739.20
2023-04-24T18:51:25.452Z,94762.41
2023-04-24T18:54:02.112Z,94769.45
2023-04-24T19:03:23.702Z,94767.90
2023-04-24T19:05:57.000Z,94771.01
2023-04-24T19:08:25.894Z,94764.09
2023-04-24T19:11:13.755Z,94764.48
2023-04-24T19:13:59.515Z,94770.56
2023-04-24T19:16:28.270Z,94784.08
2023-04-24T19:19:20.598Z,94784.78
2023-04-24T19:25:37.613Z,94775.34
2023-04-24T19:48:23.617Z,94720.27
2023-04-24T19:51:01.321Z,94732.09
2023-04-24T20:00:11.083Z,94703.81
2023-04-24T20:02:42.802Z,94710.55
2023-04-24T20:05:14.713Z,94700.75
2023-04-24T20:07:45.200Z,94714.08
2023-04-24T20:10:15.164Z,94717.88
2023-04-24T20:12:46.049Z,94707.11
2023-04-24T20:15:14.939Z,94711.34
2023-04-24T20:17:43.784Z,94708.63
2023-04-24T20:20:29.418Z,94697.09
2023-04-24T20:23:03.411Z,94694.06
2023-04-24T20:52:11.282Z,94638.20
2023-04-24T20:54:42.425Z,94656.91
2023-04-24T20:57:18.008Z,94645.66
2023-04-24T21:03:27.870Z,94663.73
2023-04-24T21:05:56.863Z,94687.08
2023-04-24T21:08:25.449Z,94698.00
2023-04-24T21:10:54.173Z,94714.05
2023-04-24T21:13:22.932Z,94713.42
2023-04-24T21:15:52.365Z,94716.23
2023-04-24T21:18:21.543Z,94706.09
2023-04-24T21:20:51.842Z,94694.61
2023-04-24T21:23:22.109Z,94680.27
2023-04-24T21:25:50.922Z,94666.76
2023-04-24T21:28:20.049Z,94670.63
2023-04-24T21:30:48.811Z,94674.90
2023-04-24T21:33:17.797Z,94673.59
2023-04-24T21:35:46.436Z,94669.53
2023-04-24T21:38:15.553Z,94653.31
2023-04-24T21:40:44.138Z,94647.00
2023-04-24T21:43:12.940Z,94636.77
2023-04-24T21:45:41.720Z,94633.36
2023-04-24T21:48:10.909Z,94633.36
2023-04-24T21:50:39.701Z,94633.02
2023-04-24T21:53:08.398Z,94632.07
2023-04-24T21:55:40.309Z,94630.39
2023-04-24T21:58:09.052Z,94632.09
2023-04-24T22:00:37.785Z,94629.81
2023-04-24T22:03:06.640Z,94637.23
2023-04-24T22:05:35.432Z,94637.81
2023-04-24T22:08:04.166Z,94637.25
2023-04-24T22:10:32.866Z,94641.83
2023-04-24T22:13:01.674Z,94636.47
2023-04-24T22:15:31.192Z,94631.10
2023-04-24T22:18:01.234Z,94632.84
2023-04-24T22:20:30.861Z,94629.02
2023-04-24T22:22:59.552Z,94628.96
2023-04-24T22:25:28.194Z,94626.09
2023-04-24T22:27:57.055Z,94618.10
2023-04-24T22:30:25.657Z,94621.14
2023-04-24T22:32:54.562Z,94616.81
2023-04-24T22:35:23.352Z,94621.53
2023-04-24T22:37:56.730Z,94612.39
2023-04-24T22:40:26.355Z,94618.28
2023-04-24T22:42:55.128Z,94610.06
2023-04-24T22:45:23.882Z,94621.19
2023-04-24T22:47:52.828Z,94625.23
2023-04-24T22:50:22.151Z,94607.26
2023-04-24T22:52:50.886Z,94605.92
2023-04-24T22:55:19.712Z,94614.30
2023-04-24T22:57:50.247Z,94619.09
2023-04-24T23:00:20.043Z,94613.95
2023-04-24T23:02:50.675Z,94609.56
2023-04-24T23:05:20.999Z,94624.03
2023-04-24T23:07:50.003Z,94643.56
2023-04-24T23:10:21.462Z,94670.64
2023-04-24T23:12:51.154Z,94674.47
2023-04-24T23:15:21.324Z,94674.08
2023-04-24T23:17:50.099Z,94652.53
2023-04-24T23:20:19.052Z,94641.31
2023-04-24T23:22:47.815Z,94650.05
2023-04-24T23:25:16.646Z,94644.73
2023-04-24T23:27:45.457Z,94638.44
2023-04-24T23:30:14.252Z,94631.75
2023-04-24T23:32:44.448Z,94641.86
2023-04-24T23:35:13.257Z,94644.33
2023-04-24T23:37:42.111Z,94647.58
2023-04-24T23:40:11.476Z,94642.66
2023-04-24T23:42:40.440Z,94641.10
2023-04-24T23:45:13.973Z,94621.31
2023-04-24T23:47:43.253Z,94631.98
2023-04-24T23:50:12.274Z,94626.63
2023-04-24T23:52:44.048Z,94620.89
2023-04-24T23:55:12.817Z,94602.58
2023-04-24T23:57:41.425Z,94601.23
